sensor_id;sensor_type;location;lat;lon;timestamp;pressure;altitude;pressure_sealevel;temperature;humidity
11856;BME280;5987;53.140;8.904;2023-03-19T00:00:46;101185.53;;;8.11;100.00
11856;BME280;5987;53.140;8.904;2023-03-19T00:03:50;101200.38;;;8.08;100.00
11856;BME280;5987;53.140;8.904;2023-03-19T00:06:54;101195.16;;;8.07;100.00
11856;BME280;5987;53.140;8.904;2023-03-19T00:09:59;101199.69;;;8.00;100.00
11856;BME280;5987;53.140;8.904;2023-03-19T00:13:02;101196.44;;;7.89;100.00
11856;BME280;5987;53.140;8.904;2023-03-19T00:16:07;101200.03;;;7.82;100.00
11856;BME280;5987;53.140;8.904;2023-03-19T00:19:10;101201.69;;;7.86;100.00
11856;BME280;5987;53.140;8.904;2023-03-19T00:22:14;101195.00;;;7.72;100.00
11856;BME280;5987;53.140;8.904;2023-03-19T00:25:19;101195.00;;;7.72;100.00
11856;BME280;5987;53.140;8.904;2023-03-19T00:28:23;101199.53;;;7.63;100.00
11856;BME280;5987;53.140;8.904;2023-03-19T00:31:28;101197.97;;;7.54;100.00
11856;BME280;5987;53.140;8.904;2023-03-19T00:34:32;101205.75;;;7.57;100.00
11856;BME280;5987;53.140;8.904;2023-03-19T00:37:36;101192.78;;;7.52;100.00
11856;BME280;5987;53.140;8.904;2023-03-19T00:40:41;101197.03;;;7.58;100.00
11856;BME280;5987;53.140;8.904;2023-03-19T00:43:45;101205.81;;;7.54;100.00
11856;BME280;5987;53.140;8.904;2023-03-19T00:46:48;101206.50;;;7.64;100.00
11856;BME280;5987;53.140;8.904;2023-03-19T00:49:52;101198.72;;;7.59;100.00
11856;BME280;5987;53.140;8.904;2023-03-19T00:52:56;101204.06;;;7.53;100.00
11856;BME280;5987;53.140;8.904;2023-03-19T00:56:01;101200.59;;;7.51;100.00
11856;BME280;5987;53.140;8.904;2023-03-19T00:59:06;101202.28;;;7.55;100.00
11856;BME280;5987;53.140;8.904;2023-03-19T01:02:09;101202.34;;;7.52;100.00
11856;BME280;5987;53.140;8.904;2023-03-19T01:05:13;101184.13;;;7.49;100.00
11856;BME280;5987;53.140;8.904;2023-03-19T01:08:18;101195.44;;;7.48;100.00
11856;BME280;5987;53.140;8.904;2023-03-19T01:11:23;101205.06;;;7.46;100.00
11856;BME280;5987;53.140;8.904;2023-03-19T01:14:26;101209.50;;;7.41;100.00
11856;BME280;5987;53.140;8.904;2023-03-19T01:17:30;101205.25;;;7.35;100.00
11856;BME280;5987;53.140;8.904;2023-03-19T01:20:35;101208.81;;;7.31;100.00
11856;BME280;5987;53.140;8.904;2023-03-19T01:23:39;101194.09;;;7.25;100.00
11856;BME280;5987;53.140;8.904;2023-03-19T01:26:44;101202.78;;;7.27;100.00
11856;BME280;5987;53.140;8.904;2023-03-19T01:29:47;101197.69;;;7.19;100.00
11856;BME280;5987;53.140;8.904;2023-03-19T01:32:51;101203.75;;;7.21;100.00
11856;BME280;5987;53.140;8.904;2023-03-19T01:35:55;101196.84;;;7.17;100.00
11856;BME280;5987;53.140;8.904;2023-03-19T01:38:59;101194.06;;;7.27;100.00
11856;BME280;5987;53.140;8.904;2023-03-19T01:42:04;101199.44;;;7.19;100.00
11856;BME280;5987;53.140;8.904;2023-03-19T01:45:30;101196.72;;;7.25;100.00
11856;BME280;5987;53.140;8.904;2023-03-19T01:48:40;101199.22;;;7.33;100.00
11856;BME280;5987;53.140;8.904;2023-03-19T01:51:46;101201.75;;;7.36;100.00
11856;BME280;5987;53.140;8.904;2023-03-19T01:54:50;101194.59;;;7.47;100.00
11856;BME280;5987;53.140;8.904;2023-03-19T01:57:57;101200.72;;;7.45;100.00
11856;BME280;5987;53.140;8.904;2023-03-19T02:01:01;101204.13;;;7.50;100.00
11856;BME280;5987;53.140;8.904;2023-03-19T02:04:06;101200.53;;;7.55;100.00
11856;BME280;5987;53.140;8.904;2023-03-19T02:07:10;101200.47;;;7.59;100.00
11856;BME280;5987;53.140;8.904;2023-03-19T02:10:16;101204.72;;;7.64;100.00
11856;BME280;5987;53.140;8.904;2023-03-19T02:13:21;101195.00;;;7.72;100.00
11856;BME280;5987;53.140;8.904;2023-03-19T02:16:25;101194.13;;;7.73;100.00
11856;BME280;5987;53.140;8.904;2023-03-19T02:19:38;101194.09;;;7.75;100.00
11856;BME280;5987;53.140;8.904;2023-03-19T02:22:51;101194.91;;;7.77;100.00
11856;BME280;5987;53.140;8.904;2023-03-19T02:26:05;101194.06;;;7.77;100.00
11856;BME280;5987;53.140;8.904;2023-03-19T02:29:10;101193.09;;;7.81;100.00
11856;BME280;5987;53.140;8.904;2023-03-19T02:32:13;101190.59;;;7.75;100.00
11856;BME280;5987;53.140;8.904;2023-03-19T02:35:17;101194.09;;;7.75;100.00
11856;BME280;5987;53.140;8.904;2023-03-19T02:38:24;101188.81;;;7.77;100.00
11856;BME280;5987;53.140;8.904;2023-03-19T02:41:32;101186.09;;;7.81;100.00
11856;BME280;5987;53.140;8.904;2023-03-19T02:44:36;101181.72;;;7.83;100.00
11856;BME280;5987;53.140;8.904;2023-03-19T02:47:40;101179.97;;;7.84;100.00
11856;BME280;5987;53.140;8.904;2023-03-19T02:50:44;101182.50;;;7.87;100.00
11856;BME280;5987;53.140;8.904;2023-03-19T02:53:47;101185.16;;;7.85;100.00
11856;BME280;5987;53.140;8.904;2023-03-19T02:56:52;101173.00;;;7.83;100.00
11856;BME280;5987;53.140;8.904;2023-03-19T02:59:56;101171.31;;;7.80;100.00
11856;BME280;5987;53.140;8.904;2023-03-19T03:03:00;101178.16;;;7.86;100.00
11856;BME280;5987;53.140;8.904;2023-03-19T03:06:04;101178.06;;;7.92;100.00
11856;BME280;5987;53.140;8.904;2023-03-19T03:09:08;101192.22;;;7.80;100.00
11856;BME280;5987;53.140;8.904;2023-03-19T03:12:14;101187.75;;;7.87;100.00
11856;BME280;5987;53.140;8.904;2023-03-19T03:15:18;101185.19;;;7.84;100.00
11856;BME280;5987;53.140;8.904;2023-03-19T03:18:22;101180.78;;;7.86;100.00
11856;BME280;5987;53.140;8.904;2023-03-19T03:21:26;101195.59;;;7.87;100.00
11856;BME280;5987;53.140;8.904;2023-03-19T03:24:30;101176.53;;;7.80;100.00
11856;BME280;5987;53.140;8.904;2023-03-19T03:27:36;101186.16;;;7.80;100.00
11856;BME280;5987;53.140;8.904;2023-03-19T03:30:40;101197.41;;;7.83;100.00
11856;BME280;5987;53.140;8.904;2023-03-19T03:33:44;101196.47;;;7.86;100.00
11856;BME280;5987;53.140;8.904;2023-03-19T03:36:48;101191.44;;;7.77;100.00
11856;BME280;5987;53.140;8.904;2023-03-19T03:39:52;101197.28;;;7.89;100.00
11856;BME280;5987;53.140;8.904;2023-03-19T03:42:57;101205.97;;;7.90;100.00
11856;BME280;5987;53.140;8.904;2023-03-19T03:46:00;101200.84;;;7.85;100.00
11856;BME280;5987;53.140;8.904;2023-03-19T03:49:04;101198.34;;;7.81;100.00
11856;BME280;5987;53.140;8.904;2023-03-19T03:52:08;101206.81;;;7.92;100.00
11856;BME280;5987;53.140;8.904;2023-03-19T03:55:12;101198.97;;;7.92;100.00
11856;BME280;5987;53.140;8.904;2023-03-19T03:58:17;101196.47;;;7.86;100.00
11856;BME280;5987;53.140;8.904;2023-03-19T04:01:21;101193.72;;;7.94;100.00
11856;BME280;5987;53.140;8.904;2023-03-19T04:04:24;101203.25;;;7.96;100.00
11856;BME280;5987;53.140;8.904;2023-03-19T04:07:28;101212.78;;;7.99;100.00
11856;BME280;5987;53.140;8.904;2023-03-19T04:10:32;101212.81;;;7.97;100.00
11856;BME280;5987;53.140;8.904;2023-03-19T04:13:39;101204.19;;;7.94;100.00
11856;BME280;5987;53.140;8.904;2023-03-19T04:16:43;101211.25;;;7.88;100.00
11856;BME280;5987;53.140;8.904;2023-03-19T04:19:47;101206.88;;;7.87;100.00
11856;BME280;5987;53.140;8.904;2023-03-19T04:22:51;101200.00;;;7.85;100.00
11856;BME280;5987;53.140;8.904;2023-03-19T04:25:57;101197.44;;;7.80;100.00
11856;BME280;5987;53.140;8.904;2023-03-19T04:29:03;101191.38;;;7.80;100.00
11856;BME280;5987;53.140;8.904;2023-03-19T04:32:07;101200.09;;;7.79;100.00
11856;BME280;5987;53.140;8.904;2023-03-19T04:35:11;101205.22;;;7.85;100.00
11856;BME280;5987;53.140;8.904;2023-03-19T04:38:14;101208.72;;;7.84;100.00
11856;BME280;5987;53.140;8.904;2023-03-19T04:41:18;101200.06;;;7.80;100.00
11856;BME280;5987;53.140;8.904;2023-03-19T04:44:23;101199.19;;;7.81;100.00
11856;BME280;5987;53.140;8.904;2023-03-19T04:47:26;101201.81;;;7.80;100.00
11856;BME280;5987;53.140;8.904;2023-03-19T04:50:29;101208.72;;;7.84;100.00
11856;BME280;5987;53.140;8.904;2023-03-19T04:53:33;101208.81;;;7.78;100.00
11856;BME280;5987;53.140;8.904;2023-03-19T04:56:37;101209.63;;;7.81;100.00
11856;BME280;5987;53.140;8.904;2023-03-19T04:59:42;101224.28;;;7.90;100.00
11856;BME280;5987;53.140;8.904;2023-03-19T05:02:46;101217.41;;;7.84;100.00
11856;BME280;5987;53.140;8.904;2023-03-19T05:05:49;101222.56;;;7.87;100.00
11856;BME280;5987;53.140;8.904;2023-03-19T05:08:55;101228.47;;;7.99;100.00
11856;BME280;5987;53.140;8.904;2023-03-19T05:11:58;101226.88;;;7.90;100.00
11856;BME280;5987;53.140;8.904;2023-03-19T05:15:04;101230.16;;;8.01;100.00
11856;BME280;5987;53.140;8.904;2023-03-19T05:18:08;101229.44;;;7.93;100.00
11856;BME280;5987;53.140;8.904;2023-03-19T05:21:12;101226.88;;;7.90;100.00
11856;BME280;5987;53.140;8.904;2023-03-19T05:24:17;101232.16;;;7.88;100.00
11856;BME280;5987;53.140;8.904;2023-03-19T05:27:20;101231.31;;;7.88;100.00
11856;BME280;5987;53.140;8.904;2023-03-19T05:30:26;101226.84;;;7.92;100.00
11856;BME280;5987;53.140;8.904;2023-03-19T05:33:29;101227.81;;;7.89;100.00
11856;BME280;5987;53.140;8.904;2023-03-19T05:36:33;101227.75;;;7.92;100.00
11856;BME280;5987;53.140;8.904;2023-03-19T05:39:37;101225.22;;;7.86;100.00
11856;BME280;5987;53.140;8.904;2023-03-19T05:42:40;101221.81;;;7.82;100.00
11856;BME280;5987;53.140;8.904;2023-03-19T05:45:50;101218.34;;;7.80;100.00
11856;BME280;5987;53.140;8.904;2023-03-19T05:48:54;101228.81;;;7.80;100.00
11856;BME280;5987;53.140;8.904;2023-03-19T05:51:58;101237.44;;;7.85;100.00
11856;BME280;5987;53.140;8.904;2023-03-19T05:55:01;101241.84;;;7.82;100.00
11856;BME280;5987;53.140;8.904;2023-03-19T05:58:06;101242.81;;;7.79;100.00
11856;BME280;5987;53.140;8.904;2023-03-19T06:01:11;101249.00;;;7.73;100.00
11856;BME280;5987;53.140;8.904;2023-03-19T06:04:15;101248.03;;;7.78;100.00
11856;BME280;5987;53.140;8.904;2023-03-19T06:07:18;101243.66;;;7.80;100.00
11856;BME280;5987;53.140;8.904;2023-03-19T06:10:22;101242.72;;;7.84;100.00
11856;BME280;5987;53.140;8.904;2023-03-19T06:13:25;101248.06;;;7.76;100.00
11856;BME280;5987;53.140;8.904;2023-03-19T06:16:30;101240.94;;;7.84;100.00
11856;BME280;5987;53.140;8.904;2023-03-19T06:19:34;101248.75;;;7.86;100.00
11856;BME280;5987;53.140;8.904;2023-03-19T06:22:37;101250.44;;;7.88;100.00
11856;BME280;5987;53.140;8.904;2023-03-19T06:25:41;101247.75;;;7.93;100.00
11856;BME280;5987;53.140;8.904;2023-03-19T06:28:44;101248.47;;;8.01;100.00
11856;BME280;5987;53.140;8.904;2023-03-19T06:31:49;101253.69;;;8.01;100.00
11856;BME280;5987;53.140;8.904;2023-03-19T06:34:53;101251.56;;;8.22;100.00
11856;BME280;5987;53.140;8.904;2023-03-19T06:37:57;101253.00;;;8.35;100.00
11856;BME280;5987;53.140;8.904;2023-03-19T06:41:01;101254.53;;;8.49;100.00
11856;BME280;5987;53.140;8.904;2023-03-19T06:44:05;101248.94;;;8.64;100.00
11856;BME280;5987;53.140;8.904;2023-03-19T06:47:10;101248.88;;;8.67;100.00
11856;BME280;5987;53.140;8.904;2023-03-19T06:50:16;101251.69;;;8.97;100.00
11856;BME280;5987;53.140;8.904;2023-03-19T06:53:19;101256.56;;;9.13;100.00
11856;BME280;5987;53.140;8.904;2023-03-19T06:56:23;101254.81;;;9.13;100.00
11856;BME280;5987;53.140;8.904;2023-03-19T06:59:27;101258.00;;;9.26;100.00
11856;BME280;5987;53.140;8.904;2023-03-19T07:02:33;101259.84;;;9.21;100.00
11856;BME280;5987;53.140;8.904;2023-03-19T07:05:36;101267.75;;;9.19;100.00
11856;BME280;5987;53.140;8.904;2023-03-19T07:08:40;101260.28;;;9.40;100.00
11856;BME280;5987;53.140;8.904;2023-03-19T07:11:47;101254.38;;;9.66;100.00
11856;BME280;5987;53.140;8.904;2023-03-19T07:14:50;101264.97;;;9.61;100.00
11856;BME280;5987;53.140;8.904;2023-03-19T07:17:55;101277.97;;;9.66;100.00
11856;BME280;5987;53.140;8.904;2023-03-19T07:20:59;101273.03;;;9.87;100.00
11856;BME280;5987;53.140;8.904;2023-03-19T07:24:04;101270.19;;;9.96;100.00
11856;BME280;5987;53.140;8.904;2023-03-19T07:27:07;101267.66;;;9.91;100.00
11856;BME280;5987;53.140;8.904;2023-03-19T07:30:13;101270.50;;;9.84;100.00
11856;BME280;5987;53.140;8.904;2023-03-19T07:33:19;101275.75;;;9.84;100.00
11856;BME280;5987;53.140;8.904;2023-03-19T07:36:23;101277.53;;;9.83;100.00
11856;BME280;5987;53.140;8.904;2023-03-19T07:39:27;101282.56;;;9.91;100.00
11856;BME280;5987;53.140;8.904;2023-03-19T07:42:31;101279.75;;;9.99;100.00
11856;BME280;5987;53.140;8.904;2023-03-19T07:45:35;101282.31;;;10.00;100.00
11856;BME280;5987;53.140;8.904;2023-03-19T07:48:40;101283.44;;;9.90;100.00
11856;BME280;5987;53.140;8.904;2023-03-19T07:51:43;101287.22;;;10.12;100.00
11856;BME280;5987;53.140;8.904;2023-03-19T07:54:47;101290.75;;;10.11;100.00
11856;BME280;5987;53.140;8.904;2023-03-19T07:57:51;101295.91;;;10.15;100.00
11856;BME280;5987;53.140;8.904;2023-03-19T08:00:55;101298.44;;;10.18;100.00
11856;BME280;5987;53.140;8.904;2023-03-19T08:04:00;101301.91;;;10.20;100.00
11856;BME280;5987;53.140;8.904;2023-03-19T08:07:04;101311.47;;;10.21;100.00
11856;BME280;5987;53.140;8.904;2023-03-19T08:10:09;101311.22;;;10.30;100.00
11856;BME280;5987;53.140;8.904;2023-03-19T08:13:13;101309.50;;;10.29;100.00
11856;BME280;5987;53.140;8.904;2023-03-19T08:16:17;101314.19;;;10.18;100.00
11856;BME280;5987;53.140;8.904;2023-03-19T08:19:22;101305.34;;;10.22;100.00
11856;BME280;5987;53.140;8.904;2023-03-19T08:22:26;101310.50;;;10.25;100.00
11856;BME280;5987;53.140;8.904;2023-03-19T08:25:29;101311.41;;;10.24;100.00
11856;BME280;5987;53.140;8.904;2023-03-19T08:28:34;101306.06;;;10.27;100.00
11856;BME280;5987;53.140;8.904;2023-03-19T08:31:38;101314.41;;;10.43;100.00
11856;BME280;5987;53.140;8.904;2023-03-19T08:34:43;101314.19;;;10.51;100.00
11856;BME280;5987;53.140;8.904;2023-03-19T08:37:50;101312.59;;;10.75;100.00
11856;BME280;5987;53.140;8.904;2023-03-19T08:40:56;101305.13;;;10.91;100.00
11856;BME280;5987;53.140;8.904;2023-03-19T08:44:04;101302.97;;;11.04;100.00
11856;BME280;5987;53.140;8.904;2023-03-19T08:47:08;101303.53;;;11.13;100.00
11856;BME280;5987;53.140;8.904;2023-03-19T08:50:15;101299.91;;;11.18;100.00
11856;BME280;5987;53.140;8.904;2023-03-19T08:53:19;101301.94;;;11.36;100.00
11856;BME280;5987;53.140;8.904;2023-03-19T08:56:22;101305.53;;;11.60;100.00
11856;BME280;5987;53.140;8.904;2023-03-19T08:59:26;101309.44;;;11.48;100.00
11856;BME280;5987;53.140;8.904;2023-03-19T09:02:32;101307.41;;;11.57;100.00
11856;BME280;5987;53.140;8.904;2023-03-19T09:05:37;101307.84;;;11.70;100.00
11856;BME280;5987;53.140;8.904;2023-03-19T09:08:41;101318.81;;;11.56;100.00
11856;BME280;5987;53.140;8.904;2023-03-19T09:11:46;101315.59;;;11.47;100.00
11856;BME280;5987;53.140;8.904;2023-03-19T09:14:50;101311.03;;;11.53;100.00
11856;BME280;5987;53.140;8.904;2023-03-19T09:17:53;101314.66;;;11.75;100.00
11856;BME280;5987;53.140;8.904;2023-03-19T09:20:58;101322.66;;;11.72;100.00
11856;BME280;5987;53.140;8.904;2023-03-19T09:24:03;101321.78;;;11.73;100.00
11856;BME280;5987;53.140;8.904;2023-03-19T09:27:07;101320.41;;;11.87;100.00
11856;BME280;5987;53.140;8.904;2023-03-19T09:30:12;101323.38;;;11.77;100.00
11856;BME280;5987;53.140;8.904;2023-03-19T09:33:18;101329.56;;;11.76;100.00
11856;BME280;5987;53.140;8.904;2023-03-19T09:36:24;101333.69;;;11.83;100.00
11856;BME280;5987;53.140;8.904;2023-03-19T09:39:28;101335.41;;;11.84;100.00
11856;BME280;5987;53.140;8.904;2023-03-19T09:42:52;101336.53;;;12.04;100.00
11856;BME280;5987;53.140;8.904;2023-03-19T09:46:01;101334.19;;;12.69;100.00
11856;BME280;5987;53.140;8.904;2023-03-19T09:49:18;101323.75;;;13.12;100.00
11856;BME280;5987;53.140;8.904;2023-03-19T09:52:36;101321.06;;;13.13;100.00
11856;BME280;5987;53.140;8.904;2023-03-19T09:55:46;101331.13;;;13.26;100.00
11856;BME280;5987;53.140;8.904;2023-03-19T09:58:51;101327.56;;;13.27;100.00
11856;BME280;5987;53.140;8.904;2023-03-19T10:02:16;101328.16;;;13.35;100.00
11856;BME280;5987;53.140;8.904;2023-03-19T10:05:33;101335.47;;;13.04;100.00
11856;BME280;5987;53.140;8.904;2023-03-19T10:09:02;101340.44;;;13.34;100.00
11856;BME280;5987;53.140;8.904;2023-03-19T10:12:27;101338.81;;;13.32;100.00
11856;BME280;5987;53.140;8.904;2023-03-19T10:15:38;101337.31;;;13.25;100.00
11856;BME280;5987;53.140;8.904;2023-03-19T10:18:49;101338.25;;;13.24;100.00
11856;BME280;5987;53.140;8.904;2023-03-19T10:21:59;101340.94;;;13.66;100.00
11856;BME280;5987;53.140;8.904;2023-03-19T10:25:15;101325.66;;;13.75;100.00
11856;BME280;5987;53.140;8.904;2023-03-19T10:28:21;101326.38;;;13.99;100.00
11856;BME280;5987;53.140;8.904;2023-03-19T10:31:27;101324.06;;;14.12;100.00
11856;BME280;5987;53.140;8.904;2023-03-19T10:34:35;101319.75;;;14.30;100.00
11856;BME280;5987;53.140;8.904;2023-03-19T10:37:39;101318.69;;;14.34;100.00
11856;BME280;5987;53.140;8.904;2023-03-19T10:41:01;101318.91;;;14.29;100.00
11856;BME280;5987;53.140;8.904;2023-03-19T10:44:13;101321.91;;;14.59;100.00
11856;BME280;5987;53.140;8.904;2023-03-19T10:47:23;101316.03;;;14.73;100.00
11856;BME280;5987;53.140;8.904;2023-03-19T10:50:31;101325.25;;;14.25;100.00
11856;BME280;5987;53.140;8.904;2023-03-19T10:53:38;101327.91;;;14.44;100.00
11856;BME280;5987;53.140;8.904;2023-03-19T10:56:46;101324.66;;;14.18;100.00
11856;BME280;5987;53.140;8.904;2023-03-19T10:59:50;101328.34;;;14.35;100.00
11856;BME280;5987;53.140;8.904;2023-03-19T11:02:55;101329.25;;;14.13;100.00
11856;BME280;5987;53.140;8.904;2023-03-19T11:06:08;101327.19;;;14.01;100.00
11856;BME280;5987;53.140;8.904;2023-03-19T11:09:27;101336.81;;;13.81;100.00
11856;BME280;5987;53.140;8.904;2023-03-19T11:12:35;101339.66;;;13.97;100.00
11856;BME280;5987;53.140;8.904;2023-03-19T11:15:40;101344.50;;;13.65;100.00
11856;BME280;5987;53.140;8.904;2023-03-19T11:18:47;101338.56;;;13.81;100.00
11856;BME280;5987;53.140;8.904;2023-03-19T11:22:14;101348.41;;;13.77;100.00
11856;BME280;5987;53.140;8.904;2023-03-19T11:25:26;101344.56;;;13.64;100.00
11856;BME280;5987;53.140;8.904;2023-03-19T11:28:35;101348.31;;;13.58;100.00
11856;BME280;5987;53.140;8.904;2023-03-19T11:31:47;101354.41;;;13.38;100.00
11856;BME280;5987;53.140;8.904;2023-03-19T11:35:00;101357.28;;;13.32;100.00
11856;BME280;5987;53.140;8.904;2023-03-19T11:38:15;101361.28;;;13.18;100.00
11856;BME280;5987;53.140;8.904;2023-03-19T11:41:32;101358.94;;;12.89;100.00
11856;BME280;5987;53.140;8.904;2023-03-19T11:44:54;101365.91;;;12.90;100.00
11856;BME280;5987;53.140;8.904;2023-03-19T11:48:27;101366.59;;;12.71;100.00
11856;BME280;5987;53.140;8.904;2023-03-19T11:51:40;101370.00;;;12.75;100.00
11856;BME280;5987;53.140;8.904;2023-03-19T11:55:02;101359.25;;;12.56;100.00
11856;BME280;5987;53.140;8.904;2023-03-19T11:58:40;101363.06;;;12.72;100.00
11856;BME280;5987;53.140;8.904;2023-03-19T12:05:47;101371.25;;;12.64;100.00
11856;BME280;5987;53.140;8.904;2023-03-19T12:09:02;101376.78;;;12.57;100.00
11856;BME280;5987;53.140;8.904;2023-03-19T12:12:17;101376.00;;;12.55;100.00
11856;BME280;5987;53.140;8.904;2023-03-19T12:15:36;101379.66;;;12.50;100.00
11856;BME280;5987;53.140;8.904;2023-03-19T12:19:08;101379.56;;;12.53;100.00
11856;BME280;5987;53.140;8.904;2023-03-19T12:22:34;101386.09;;;12.42;100.00
11856;BME280;5987;53.140;8.904;2023-03-19T12:26:02;101386.97;;;12.42;100.00
11856;BME280;5987;53.140;8.904;2023-03-19T12:29:21;101387.66;;;12.47;100.00
11856;BME280;5987;53.140;8.904;2023-03-19T12:32:47;101383.88;;;12.31;100.00
11856;BME280;5987;53.140;8.904;2023-03-19T12:36:01;101390.41;;;12.19;100.00
11856;BME280;5987;53.140;8.904;2023-03-19T12:39:11;101394.50;;;12.03;100.00
11856;BME280;5987;53.140;8.904;2023-03-19T12:42:20;101408.97;;;11.88;100.00
11856;BME280;5987;53.140;8.904;2023-03-19T12:45:31;101414.75;;;11.72;100.00
11856;BME280;5987;53.140;8.904;2023-03-19T12:48:41;101422.41;;;11.52;100.00
11856;BME280;5987;53.140;8.904;2023-03-19T12:51:54;101420.25;;;11.36;100.00
11856;BME280;5987;53.140;8.904;2023-03-19T12:55:05;101415.28;;;11.27;100.00
11856;BME280;5987;53.140;8.904;2023-03-19T12:58:24;101417.91;;;11.27;100.00
11856;BME280;5987;53.140;8.904;2023-03-19T13:01:37;101414.97;;;11.36;100.00
11856;BME280;5987;53.140;8.904;2023-03-19T13:04:50;101410.88;;;11.56;100.00
11856;BME280;5987;53.140;8.904;2023-03-19T13:08:06;101414.09;;;11.92;100.00
11856;BME280;5987;53.140;8.904;2023-03-19T13:11:20;101401.06;;;12.41;100.00
11856;BME280;5987;53.140;8.904;2023-03-19T13:14:40;101393.03;;;12.93;100.00
11856;BME280;5987;53.140;8.904;2023-03-19T13:18:01;101386.13;;;13.36;100.00
11856;BME280;5987;53.140;8.904;2023-03-19T13:21:21;101386.13;;;13.13;100.00
11856;BME280;5987;53.140;8.904;2023-03-19T13:24:30;101386.50;;;12.80;100.00
11856;BME280;5987;53.140;8.904;2023-03-19T13:27:36;101387.34;;;12.80;100.00
11856;BME280;5987;53.140;8.904;2023-03-19T13:30:58;101384.19;;;12.94;100.00
11856;BME280;5987;53.140;8.904;2023-03-19T13:34:06;101379.31;;;13.07;100.00
11856;BME280;5987;53.140;8.904;2023-03-19T13:37:23;101382.25;;;13.21;100.00
11856;BME280;5987;53.140;8.904;2023-03-19T13:40:45;101374.53;;;13.41;100.00
11856;BME280;5987;53.140;8.904;2023-03-19T13:43:53;101371.94;;;13.61;100.00
11856;BME280;5987;53.140;8.904;2023-03-19T13:47:01;101370.16;;;13.40;100.00
11856;BME280;5987;53.140;8.904;2023-03-19T13:50:30;101368.09;;;13.48;100.00
11856;BME280;5987;53.140;8.904;2023-03-19T13:54:04;101360.09;;;13.49;100.00
11856;BME280;5987;53.140;8.904;2023-03-19T13:57:34;101354.88;;;13.70;100.00
11856;BME280;5987;53.140;8.904;2023-03-19T14:00:59;101356.09;;;13.61;100.00
11856;BME280;5987;53.140;8.904;2023-03-19T14:04:04;101350.03;;;13.59;100.00
11856;BME280;5987;53.140;8.904;2023-03-19T14:07:17;101356.69;;;13.47;100.00
11856;BME280;5987;53.140;8.904;2023-03-19T14:10:28;101353.50;;;13.39;100.00
11856;BME280;5987;53.140;8.904;2023-03-19T14:13:39;101350.25;;;13.09;100.00
11856;BME280;5987;53.140;8.904;2023-03-19T14:16:44;101353.66;;;13.12;100.00
11856;BME280;5987;53.140;8.904;2023-03-19T14:19:49;101354.78;;;13.05;100.00
11856;BME280;5987;53.140;8.904;2023-03-19T14:23:11;101362.41;;;13.13;100.00
11856;BME280;5987;53.140;8.904;2023-03-19T14:26:26;101355.69;;;13.28;100.00
11856;BME280;5987;53.140;8.904;2023-03-19T14:29:34;101356.00;;;13.42;100.00
11856;BME280;5987;53.140;8.904;2023-03-19T14:32:41;101351.91;;;13.35;100.00
11856;BME280;5987;53.140;8.904;2023-03-19T14:35:49;101349.84;;;13.64;100.00
11856;BME280;5987;53.140;8.904;2023-03-19T14:38:58;101358.03;;;13.78;100.00
11856;BME280;5987;53.140;8.904;2023-03-19T14:42:07;101350.88;;;13.60;100.00
11856;BME280;5987;53.140;8.904;2023-03-19T14:45:44;101357.75;;;13.42;100.00
11856;BME280;5987;53.140;8.904;2023-03-19T14:49:47;101352.28;;;13.24;100.00
11856;BME280;5987;53.140;8.904;2023-03-19T14:53:02;101352.34;;;13.23;100.00
11856;BME280;5987;53.140;8.904;2023-03-19T14:56:14;101344.09;;;13.32;100.00
11856;BME280;5987;53.140;8.904;2023-03-19T14:59:18;101353.38;;;13.18;100.00
11856;BME280;5987;53.140;8.904;2023-03-19T15:02:34;101358.03;;;13.12;100.00
11856;BME280;5987;53.140;8.904;2023-03-19T15:05:39;101358.63;;;12.96;100.00
11856;BME280;5987;53.140;8.904;2023-03-19T15:08:44;101353.94;;;13.04;100.00
11856;BME280;5987;53.140;8.904;2023-03-19T15:12:22;101350.13;;;13.12;100.00
11856;BME280;5987;53.140;8.904;2023-03-19T15:15:55;101355.94;;;13.44;100.00
11856;BME280;5987;53.140;8.904;2023-03-19T15:19:08;101358.03;;;13.58;100.00
11856;BME280;5987;53.140;8.904;2023-03-19T15:22:14;101352.69;;;13.59;100.00
11856;BME280;5987;53.140;8.904;2023-03-19T15:25:22;101359.97;;;13.52;100.00
11856;BME280;5987;53.140;8.904;2023-03-19T15:28:29;101369.50;;;13.57;100.00
11856;BME280;5987;53.140;8.904;2023-03-19T15:31:42;101365.88;;;13.59;100.00
11856;BME280;5987;53.140;8.904;2023-03-19T15:35:00;101366.22;;;13.50;100.00
11856;BME280;5987;53.140;8.904;2023-03-19T15:38:09;101368.69;;;13.54;100.00
11856;BME280;5987;53.140;8.904;2023-03-19T15:41:17;101367.69;;;13.57;100.00
11856;BME280;5987;53.140;8.904;2023-03-19T15:44:29;101373.22;;;13.51;100.00
11856;BME280;5987;53.140;8.904;2023-03-19T15:47:38;101372.63;;;13.44;100.00
11856;BME280;5987;53.140;8.904;2023-03-19T15:50:47;101366.78;;;13.36;100.00
11856;BME280;5987;53.140;8.904;2023-03-19T15:53:53;101371.44;;;13.29;100.00
11856;BME280;5987;53.140;8.904;2023-03-19T15:56:57;101368.66;;;13.32;100.00
11856;BME280;5987;53.140;8.904;2023-03-19T16:00:02;101378.22;;;13.36;100.00
11856;BME280;5987;53.140;8.904;2023-03-19T16:03:15;101387.13;;;13.32;100.00
11856;BME280;5987;53.140;8.904;2023-03-19T16:06:24;101383.66;;;13.32;100.00
11856;BME280;5987;53.140;8.904;2023-03-19T16:09:32;101385.78;;;13.22;100.00
11856;BME280;5987;53.140;8.904;2023-03-19T16:12:39;101385.28;;;13.12;100.00
11856;BME280;5987;53.140;8.904;2023-03-19T16:15:46;101386.91;;;13.15;100.00
11856;BME280;5987;53.140;8.904;2023-03-19T16:18:52;101390.00;;;13.04;100.00
11856;BME280;5987;53.140;8.904;2023-03-19T16:21:59;101389.47;;;12.94;100.00
11856;BME280;5987;53.140;8.904;2023-03-19T16:25:16;101394.00;;;12.91;100.00
11856;BME280;5987;53.140;8.904;2023-03-19T16:28:21;101395.38;;;12.77;100.00
11856;BME280;5987;53.140;8.904;2023-03-19T16:31:28;101397.38;;;12.70;100.00
11856;BME280;5987;53.140;8.904;2023-03-19T16:34:41;101401.03;;;12.66;100.00